LSGG Airport Information

Runway Information
Runway 04 Length 12795 ft width 164 ft
Elevation 1411 ft Threshold 1082 ft Heading 46
Runway 22 Length 12795 ft Width 164 ft
Elevation 1365 ft Threshold ft Heading 226
Runway 04L Length 2700 ft width 98 ft
Elevation 1378 ft Threshold 613 ft Heading 46
Runway 22R Length 2700 ft Width 98 ft
Elevation 1393 ft Threshold 994 ft Heading 226
Airport Frequencies
Type APP Name APP Frequency 120.3 MHZ
Type ARR Name ARR Frequency 136.25 MHZ
Type ATIS Name ATIS Frequency 135.575 MHZ
Type DEP Name DEP Frequency 119.525 MHZ
Type GND Name GND Frequency 121.675 MHZ
Type GTE Name APN Frequency 121.75 MHZ
Type TWR Name TWR Frequency 118.7 MHZ
Airport Navaids
Type NDB Name Gland Frequency 375 KHZ
Type VOR-DME Name Geneva Cointrin Frequency 115750 KHZ
Type VOR-DME Name Passeiry Frequency 116600 KHZ
Airport Weather Information & NOTAM
ADDS - METARS form results

(2114 UTC 26 January 2023)
Data provider http://aviationweather.gov/metar/data/
 
METAR text: LSGG 262050Z 03013KT 9999 FEW015 BKN020 01/M04 Q1017 NOSIG
Conditions at: LSGG (GENEVA/COINTRIN , CH) observed 2050 UTC 26 January 2023
Temperature: 1.0°C (34°F)
Dewpoint: -4.0°C (25°F) [RH = 69%]
Pressure (altimeter): 30.03 inches Hg (1017.0 mb)
Winds: from the NNE (30 degrees) at 15 MPH (13 knots; 6.7 m/s)
Visibility: 6 or more miles (10+ km)
Ceiling: 2000 feet AGL
Clouds: few clouds at 1500 feet AGL
broken clouds at 2000 feet AGL
Weather: no significant weather observed at this time

METAR text: LSGG 262020Z 03012KT 360V060 9999 FEW015 BKN020 01/M04 Q1017 NOSIG
Conditions at: LSGG (GENEVA/COINTRIN , CH) observed 2020 UTC 26 January 2023
Temperature: 1.0°C (34°F)
Dewpoint: -4.0°C (25°F) [RH = 69%]
Pressure (altimeter): 30.03 inches Hg (1017.0 mb)
Winds: from the NNE (30 degrees) at 14 MPH (12 knots; 6.2 m/s)
Visibility: 6 or more miles (10+ km)
Ceiling: 2000 feet AGL
Clouds: few clouds at 1500 feet AGL
broken clouds at 2000 feet AGL
Weather: no significant weather observed at this time

Forecast for: LSGG (GENEVA/COINTRIN , CH)
Text: TAF LSGG 262025Z 2621/2803 03012KT 9999 BKN025 TX02/2715Z TNM00/2706Z
Forecast period: 2100 UTC 26 January 2023 to 0600 UTC 27 January 2023
Forecast type: FROM: standard forecast or significant change
Winds: from the NNE (30 degrees) at 14 MPH (12 knots; 6.2 m/s)
Visibility: 6 or more miles (10+ km)
Ceiling: 2500 feet AGL
Clouds: broken clouds at 2500 feet AGL
Weather: no significant weather forecast for this period
Text: BECMG 2706/2709 03015G25KT
Forecast period: 0600 UTC 27 January 2023 to 0300 UTC 28 January 2023
Forecast type: BECOMING: Conditions expected to become as follows by 0900 UTC 27 January 2023
Winds: from the NNE (30 degrees) at 17 MPH (15 knots; 7.7 m/s)
gusting to 29 MPH (25 knots; 12.9 m/s)
Visibility: 6 or more miles (10+ km)
Ceiling: 2500 feet AGL
Clouds: broken clouds at 2500 feet AGL
Weather: no significant weather forecast for this period